Private Wetterstation Nrnberg - Katzwang
Wetterdaten: April 2010
Datum Temp. A. Feuchte A. Luftdruck Regen Wind Richtung Taupunkt Windchill Windben
01.04.2010 5,8 C 70 % 1012 hPa 0,0 l/m 7,2 km/h W-NW 0,4 C 5,1 C 8,2 km/h
02.04.2010 5,2 C 66 % 1014 hPa 0,0 l/m 2,4 km/h NO -1,1 C 5,2 C 3,4 km/h
03.04.2010 9,6 C 64 % 1009 hPa 0,5 l/m 8,6 km/h N 2,7 C 7,5 C 9,5 km/h
04.04.2010 9,6 C 65 % 1012 hPa 0,0 l/m 8,6 km/h W-NW 3,3 C 7,8 C 14,5 km/h
05.04.2010 7,4 C 69 % 1024 hPa 0,5 l/m 0,3 km/h W-NW 2,0 C 7,4 C 1,4 km/h
06.04.2010 7,9 C 62 % 1022 hPa 0,0 l/m 5,5 km/h O 0,5 C 7,0 C 6,5 km/h
07.04.2010 9,1 C 54 % 1018 hPa 0,0 l/m 2,9 km/h O -0,3 C 8,6 C 3,9 km/h
08.04.2010 11,9 C 54 % 1021 hPa 0,0 l/m 3,3 km/h N-NO 2,0 C 11,9 C 4,3 km/h
09.04.2010 10,7 C 62 % 1027 hPa 0,0 l/m 2,2 km/h N-NO 3,6 C 10,7 C 3,2 km/h
10.04.2010 7,1 C 64 % 1024 hPa 0,0 l/m 4,8 km/h N 0,4 C 5,6 C 8,0 km/h
11.04.2010 6,1 C 75 % 1018 hPa 0,0 l/m 4,8 km/h N-NO 1,9 C 5,5 C 5,8 km/h
12.04.2010 5,6 C 77 % 1014 hPa 0,0 l/m 2,4 km/h N-NO 1,7 C 5,0 C 3,4 km/h
13.04.2010 8,2 C 86 % 1012 hPa 0,0 l/m 0,0 km/h N-NO 5,9 C 8,2 C 1,0 km/h
14.04.2010 6,8 C 86 % 1012 hPa 0,0 l/m 0,0 km/h N 4,5 C 6,8 C 1,0 km/h
15.04.2010 6,5 C 85 % 1014 hPa 0,0 l/m 1,4 km/h N 4,1 C 6,5 C 2,4 km/h
16.04.2010 10,5 C 65 % 1017 hPa 0,0 l/m 1,0 km/h N-NO 4,0 C 10,5 C 2,0 km/h
17.04.2010 9,5 C 59 % 1017 hPa 0,0 l/m 2,7 km/h O 1,2 C 9,5 C 3,7 km/h
18.04.2010 11,8 C 55 % 1010 hPa 0,0 l/m 0,0 km/h N-NO 2,3 C 11,8 C 1,0 km/h
19.04.2010 12,5 C 57 % 1011 hPa 0,0 l/m 0,0 km/h N-NO 3,2 C 12,5 C 1,0 km/h
20.04.2010 11,9 C 57 % 1011 hPa 0,0 l/m 1,9 km/h W-NW 2,9 C 11,8 C 2,9 km/h
21.04.2010 8,4 C 55 % 1014 hPa 0,0 l/m 4,8 km/h W-NW -0,4 C 7,7 C 5,8 km/h
22.04.2010 7,3 C 48 % 1013 hPa 0,0 l/m 1,5 km/h N-NO -4,1 C 7,3 C 2,5 km/h
23.04.2010 9,8 C 47 % 1013 hPa 0,0 l/m 2,4 km/h N-NO -1,9 C 9,4 C 3,4 km/h
24.04.2010 13,1 C 47 % 1018 hPa 0,0 l/m 4,5 km/h O-NO 0,7 C 12,9 C 5,5 km/h
25.04.2010 15,1 C 53 % 1020 hPa 0,0 l/m 0,7 km/h N-NO 4,5 C 15,1 C 1,7 km/h
26.04.2010 14,6 C 58 % 1022 hPa 0,0 l/m 2,8 km/h W-NW 6,3 C 14,1 C 3,8 km/h
27.04.2010 13,0 C 60 % 1024 hPa 0,0 l/m 3,3 km/h N-NO 5,1 C 12,6 C 4,3 km/h
28.04.2010 14,8 C 55 % 1022 hPa 0,0 l/m 5,5 km/h N-NO 4,9 C 14,0 C 6,8 km/h
29.04.2010 18,7 C 50 % 1012 hPa 0,0 l/m 2,5 km/h NO 7,1 C 18,7 C 3,5 km/h
30.04.2010 18,4 C 63 % 1010 hPa 0,0 l/m 6,7 km/h W-NW 10,7 C 17,5 C 11,4 km/h
Min-Datum 02.04.10 23.04.10 01.04.10 2 Tage 01.04.10 - 22.04.10 11.04.10 01.04.10
Min-Zeit 07:10 18:00 00:00 - 00:10 - 19:50 14:00 00:10
Minimum -1,6 C 23 % 1005 hPa - 0,0 km/h - -7,1 C -3,2 C 1,0 km/h
Max-Datum 29.04.10 14.04.10 09.04.10 03.04.10 03.04.10 - 30.04.10 29.04.10 20.04.10
Max-Zeit 15:20 01:10 10:20 02:50 12:50 - 18:30 15:20 16:40
Maximum 28,3 C 93 % 1028 hPa 0,5 l/m 31,5 km/h
N
- 12,5 C 28,3 C 65,3 km/h
W-NW
Durchschnitt 10,2 C 62 % 1016 hPa #1,0 l/m 3,1 km/h N-NO 2,6 C 9,8 C 4,5 km/h

Durchschnitt Minimum Temp.3,4 C
Durchschnitt Maximum Temp.16,9 C